sensor_id;sensor_type;location;lat;lon;timestamp;temperature;humidity
32201;DHT22;18701;45.588;5.288;2023-02-13T00:01:51;3.00;99.90
32201;DHT22;18701;45.588;5.288;2023-02-13T00:04:16;2.90;99.90
32201;DHT22;18701;45.588;5.288;2023-02-13T00:06:42;2.90;99.90
32201;DHT22;18701;45.588;5.288;2023-02-13T00:09:08;2.90;99.90
32201;DHT22;18701;45.588;5.288;2023-02-13T00:11:36;2.70;99.90
32201;DHT22;18701;45.588;5.288;2023-02-13T00:14:01;2.60;99.90
32201;DHT22;18701;45.588;5.288;2023-02-13T00:16:27;2.80;99.90
32201;DHT22;18701;45.588;5.288;2023-02-13T00:18:52;2.70;99.90
32201;DHT22;18701;45.588;5.288;2023-02-13T00:21:18;2.80;99.90
32201;DHT22;18701;45.588;5.288;2023-02-13T00:23:44;2.60;99.90
32201;DHT22;18701;45.588;5.288;2023-02-13T00:26:12;2.70;99.90
32201;DHT22;18701;45.588;5.288;2023-02-13T00:28:37;2.70;99.90
32201;DHT22;18701;45.588;5.288;2023-02-13T00:31:09;2.60;99.90
32201;DHT22;18701;45.588;5.288;2023-02-13T00:33:36;2.70;99.90
32201;DHT22;18701;45.588;5.288;2023-02-13T00:36:07;2.60;99.90
32201;DHT22;18701;45.588;5.288;2023-02-13T00:38:34;2.70;99.90
32201;DHT22;18701;45.588;5.288;2023-02-13T00:41:00;2.80;99.90
32201;DHT22;18701;45.588;5.288;2023-02-13T00:43:25;2.70;99.90
32201;DHT22;18701;45.588;5.288;2023-02-13T00:45:51;2.80;99.90
32201;DHT22;18701;45.588;5.288;2023-02-13T00:48:17;2.50;99.90
32201;DHT22;18701;45.588;5.288;2023-02-13T00:50:42;2.60;99.90
32201;DHT22;18701;45.588;5.288;2023-02-13T00:53:08;2.70;99.90
32201;DHT22;18701;45.588;5.288;2023-02-13T00:55:33;2.70;99.90
32201;DHT22;18701;45.588;5.288;2023-02-13T00:58:00;2.60;99.90
32201;DHT22;18701;45.588;5.288;2023-02-13T01:00:26;2.40;99.90
32201;DHT22;18701;45.588;5.288;2023-02-13T01:02:51;2.60;99.90
32201;DHT22;18701;45.588;5.288;2023-02-13T01:05:17;2.40;99.90
32201;DHT22;18701;45.588;5.288;2023-02-13T01:07:43;2.50;99.90
32201;DHT22;18701;45.588;5.288;2023-02-13T01:10:08;2.50;99.90
32201;DHT22;18701;45.588;5.288;2023-02-13T01:12:34;2.40;99.90
32201;DHT22;18701;45.588;5.288;2023-02-13T01:15:00;2.40;99.90
32201;DHT22;18701;45.588;5.288;2023-02-13T01:17:25;2.50;99.90
32201;DHT22;18701;45.588;5.288;2023-02-13T01:19:51;2.50;99.90
32201;DHT22;18701;45.588;5.288;2023-02-13T01:22:17;2.50;99.90
32201;DHT22;18701;45.588;5.288;2023-02-13T01:24:42;2.30;99.90
32201;DHT22;18701;45.588;5.288;2023-02-13T01:27:08;2.30;99.90
32201;DHT22;18701;45.588;5.288;2023-02-13T01:29:35;2.20;99.90
32201;DHT22;18701;45.588;5.288;2023-02-13T01:32:00;2.00;99.90
32201;DHT22;18701;45.588;5.288;2023-02-13T01:34:30;2.30;99.90
32201;DHT22;18701;45.588;5.288;2023-02-13T01:36:55;2.40;99.90
32201;DHT22;18701;45.588;5.288;2023-02-13T01:39:21;2.30;99.90
32201;DHT22;18701;45.588;5.288;2023-02-13T01:41:47;2.40;99.90
32201;DHT22;18701;45.588;5.288;2023-02-13T01:47:10;2.10;99.90
32201;DHT22;18701;45.588;5.288;2023-02-13T01:49:37;2.30;99.90
32201;DHT22;18701;45.588;5.288;2023-02-13T01:52:04;2.20;99.90
32201;DHT22;18701;45.588;5.288;2023-02-13T01:54:32;2.00;99.90
32201;DHT22;18701;45.588;5.288;2023-02-13T01:57:16;2.00;99.90
32201;DHT22;18701;45.588;5.288;2023-02-13T01:59:50;1.90;99.90
32201;DHT22;18701;45.588;5.288;2023-02-13T02:02:17;2.20;99.90
32201;DHT22;18701;45.588;5.288;2023-02-13T02:04:44;2.20;99.90
32201;DHT22;18701;45.588;5.288;2023-02-13T02:07:25;2.20;99.90
32201;DHT22;18701;45.588;5.288;2023-02-13T02:09:54;2.20;99.90
32201;DHT22;18701;45.588;5.288;2023-02-13T02:12:43;2.10;99.90
32201;DHT22;18701;45.588;5.288;2023-02-13T02:15:11;2.00;99.90
32201;DHT22;18701;45.588;5.288;2023-02-13T02:17:37;2.10;99.90
32201;DHT22;18701;45.588;5.288;2023-02-13T02:25:49;2.00;99.90
32201;DHT22;18701;45.588;5.288;2023-02-13T02:28:28;2.00;99.90
32201;DHT22;18701;45.588;5.288;2023-02-13T02:39:25;2.00;99.90
32201;DHT22;18701;45.588;5.288;2023-02-13T02:47:24;1.90;99.90
32201;DHT22;18701;45.588;5.288;2023-02-13T02:53:16;2.10;99.90
32201;DHT22;18701;45.588;5.288;2023-02-13T03:01:24;1.90;99.90
32201;DHT22;18701;45.588;5.288;2023-02-13T03:04:25;1.80;99.90
32201;DHT22;18701;45.588;5.288;2023-02-13T03:07:15;1.90;99.90
32201;DHT22;18701;45.588;5.288;2023-02-13T03:09:44;1.70;99.90
32201;DHT22;18701;45.588;5.288;2023-02-13T03:13:16;1.70;99.90
32201;DHT22;18701;45.588;5.288;2023-02-13T03:15:43;1.90;99.90
32201;DHT22;18701;45.588;5.288;2023-02-13T03:18:31;1.90;99.90
32201;DHT22;18701;45.588;5.288;2023-02-13T03:21:47;1.80;99.90
32201;DHT22;18701;45.588;5.288;2023-02-13T03:24:49;1.60;99.90
32201;DHT22;18701;45.588;5.288;2023-02-13T03:30:20;1.80;99.90
32201;DHT22;18701;45.588;5.288;2023-02-13T03:35:48;1.80;99.90
32201;DHT22;18701;45.588;5.288;2023-02-13T03:38:41;1.50;99.90
32201;DHT22;18701;45.588;5.288;2023-02-13T03:41:38;1.60;99.90
32201;DHT22;18701;45.588;5.288;2023-02-13T03:44:17;1.60;99.90
32201;DHT22;18701;45.588;5.288;2023-02-13T03:46:49;1.50;99.90
32201;DHT22;18701;45.588;5.288;2023-02-13T03:49:32;1.60;99.90
32201;DHT22;18701;45.588;5.288;2023-02-13T03:52:36;1.60;99.90
32201;DHT22;18701;45.588;5.288;2023-02-13T03:55:11;1.50;99.90
32201;DHT22;18701;45.588;5.288;2023-02-13T03:57:59;1.70;99.90
32201;DHT22;18701;45.588;5.288;2023-02-13T04:00:49;1.50;99.90
32201;DHT22;18701;45.588;5.288;2023-02-13T04:03:35;1.70;99.90
32201;DHT22;18701;45.588;5.288;2023-02-13T04:06:08;1.70;99.90
32201;DHT22;18701;45.588;5.288;2023-02-13T04:08:34;1.60;99.90
32201;DHT22;18701;45.588;5.288;2023-02-13T04:13:35;1.70;99.90
32201;DHT22;18701;45.588;5.288;2023-02-13T04:16:12;1.50;99.90
32201;DHT22;18701;45.588;5.288;2023-02-13T04:18:40;1.50;99.90
32201;DHT22;18701;45.588;5.288;2023-02-13T04:21:07;1.40;99.90
32201;DHT22;18701;45.588;5.288;2023-02-13T04:23:33;1.50;99.90
32201;DHT22;18701;45.588;5.288;2023-02-13T04:26:01;1.40;99.90
32201;DHT22;18701;45.588;5.288;2023-02-13T04:28:28;1.50;99.90
32201;DHT22;18701;45.588;5.288;2023-02-13T04:30:54;1.50;99.90
32201;DHT22;18701;45.588;5.288;2023-02-13T04:33:19;1.60;99.90
32201;DHT22;18701;45.588;5.288;2023-02-13T04:35:45;1.60;99.90
32201;DHT22;18701;45.588;5.288;2023-02-13T04:38:11;1.40;99.90
32201;DHT22;18701;45.588;5.288;2023-02-13T04:40:36;1.50;99.90
32201;DHT22;18701;45.588;5.288;2023-02-13T04:43:02;1.50;99.90
32201;DHT22;18701;45.588;5.288;2023-02-13T04:45:27;1.50;99.90
32201;DHT22;18701;45.588;5.288;2023-02-13T04:47:54;1.50;99.90
32201;DHT22;18701;45.588;5.288;2023-02-13T04:50:20;1.50;99.90
32201;DHT22;18701;45.588;5.288;2023-02-13T04:52:46;1.50;99.90
32201;DHT22;18701;45.588;5.288;2023-02-13T04:55:12;1.50;99.90
32201;DHT22;18701;45.588;5.288;2023-02-13T04:57:38;1.40;99.90
32201;DHT22;18701;45.588;5.288;2023-02-13T05:00:06;1.40;99.90
32201;DHT22;18701;45.588;5.288;2023-02-13T05:02:32;1.40;99.90
32201;DHT22;18701;45.588;5.288;2023-02-13T05:04:57;1.30;99.90
32201;DHT22;18701;45.588;5.288;2023-02-13T05:07:23;1.40;99.90
32201;DHT22;18701;45.588;5.288;2023-02-13T05:09:49;1.40;99.90
32201;DHT22;18701;45.588;5.288;2023-02-13T05:12:14;1.30;99.90
32201;DHT22;18701;45.588;5.288;2023-02-13T05:14:40;1.30;99.90
32201;DHT22;18701;45.588;5.288;2023-02-13T05:17:05;1.10;99.90
32201;DHT22;18701;45.588;5.288;2023-02-13T05:19:31;1.30;99.90
32201;DHT22;18701;45.588;5.288;2023-02-13T05:21:57;1.20;99.90
32201;DHT22;18701;45.588;5.288;2023-02-13T05:24:41;1.20;99.90
32201;DHT22;18701;45.588;5.288;2023-02-13T05:27:06;1.20;99.90
32201;DHT22;18701;45.588;5.288;2023-02-13T05:29:32;1.10;99.90
32201;DHT22;18701;45.588;5.288;2023-02-13T05:31:58;1.10;99.90
32201;DHT22;18701;45.588;5.288;2023-02-13T05:34:25;1.10;99.90
32201;DHT22;18701;45.588;5.288;2023-02-13T05:36:51;1.20;99.90
32201;DHT22;18701;45.588;5.288;2023-02-13T05:39:17;1.20;99.90
32201;DHT22;18701;45.588;5.288;2023-02-13T05:41:46;1.00;99.90
32201;DHT22;18701;45.588;5.288;2023-02-13T05:44:13;1.00;99.90
32201;DHT22;18701;45.588;5.288;2023-02-13T05:46:39;1.20;99.90
32201;DHT22;18701;45.588;5.288;2023-02-13T05:49:07;1.10;99.90
32201;DHT22;18701;45.588;5.288;2023-02-13T05:51:32;1.10;99.90
32201;DHT22;18701;45.588;5.288;2023-02-13T05:53:58;1.20;99.90
32201;DHT22;18701;45.588;5.288;2023-02-13T05:56:24;1.10;99.90
32201;DHT22;18701;45.588;5.288;2023-02-13T05:58:53;1.20;99.90
32201;DHT22;18701;45.588;5.288;2023-02-13T06:01:20;1.20;99.90
32201;DHT22;18701;45.588;5.288;2023-02-13T06:03:46;1.00;99.90
32201;DHT22;18701;45.588;5.288;2023-02-13T06:06:15;1.00;99.90
32201;DHT22;18701;45.588;5.288;2023-02-13T06:08:40;1.10;99.90
32201;DHT22;18701;45.588;5.288;2023-02-13T06:11:07;1.10;99.90
32201;DHT22;18701;45.588;5.288;2023-02-13T06:13:33;1.20;99.90
32201;DHT22;18701;45.588;5.288;2023-02-13T06:15:58;1.10;99.90
32201;DHT22;18701;45.588;5.288;2023-02-13T06:18:24;1.10;99.90
32201;DHT22;18701;45.588;5.288;2023-02-13T06:20:49;1.00;99.90
32201;DHT22;18701;45.588;5.288;2023-02-13T06:23:15;1.10;99.90
32201;DHT22;18701;45.588;5.288;2023-02-13T06:25:41;1.10;99.90
32201;DHT22;18701;45.588;5.288;2023-02-13T06:28:06;0.90;99.90
32201;DHT22;18701;45.588;5.288;2023-02-13T06:30:32;1.00;99.90
32201;DHT22;18701;45.588;5.288;2023-02-13T06:32:58;1.00;99.90
32201;DHT22;18701;45.588;5.288;2023-02-13T06:35:24;1.00;99.90
32201;DHT22;18701;45.588;5.288;2023-02-13T06:37:49;0.80;99.90
32201;DHT22;18701;45.588;5.288;2023-02-13T06:40:15;0.90;99.90
32201;DHT22;18701;45.588;5.288;2023-02-13T06:42:42;0.80;99.90
32201;DHT22;18701;45.588;5.288;2023-02-13T06:45:08;1.00;99.90
32201;DHT22;18701;45.588;5.288;2023-02-13T06:47:34;1.10;99.90
32201;DHT22;18701;45.588;5.288;2023-02-13T06:50:00;1.00;99.90
32201;DHT22;18701;45.588;5.288;2023-02-13T06:52:26;1.00;99.90
32201;DHT22;18701;45.588;5.288;2023-02-13T06:54:51;0.90;99.90
32201;DHT22;18701;45.588;5.288;2023-02-13T06:57:17;0.90;99.90
32201;DHT22;18701;45.588;5.288;2023-02-13T06:59:43;1.00;99.90
32201;DHT22;18701;45.588;5.288;2023-02-13T07:02:11;0.90;99.90
32201;DHT22;18701;45.588;5.288;2023-02-13T07:04:37;0.80;99.90
32201;DHT22;18701;45.588;5.288;2023-02-13T07:07:03;0.60;99.90
32201;DHT22;18701;45.588;5.288;2023-02-13T07:09:30;1.00;99.90
32201;DHT22;18701;45.588;5.288;2023-02-13T07:11:56;0.90;99.90
32201;DHT22;18701;45.588;5.288;2023-02-13T07:14:22;1.00;99.90
32201;DHT22;18701;45.588;5.288;2023-02-13T07:16:47;1.10;99.90
32201;DHT22;18701;45.588;5.288;2023-02-13T07:19:13;1.20;99.90
32201;DHT22;18701;45.588;5.288;2023-02-13T07:21:39;1.10;99.90
32201;DHT22;18701;45.588;5.288;2023-02-13T07:24:05;1.20;99.90
32201;DHT22;18701;45.588;5.288;2023-02-13T07:26:30;1.30;99.90
32201;DHT22;18701;45.588;5.288;2023-02-13T07:28:56;1.30;99.90
32201;DHT22;18701;45.588;5.288;2023-02-13T07:31:21;1.20;99.90
32201;DHT22;18701;45.588;5.288;2023-02-13T07:33:48;1.10;99.90
32201;DHT22;18701;45.588;5.288;2023-02-13T07:36:14;1.30;99.90
32201;DHT22;18701;45.588;5.288;2023-02-13T07:38:39;1.20;99.90
32201;DHT22;18701;45.588;5.288;2023-02-13T07:41:05;1.10;99.90
32201;DHT22;18701;45.588;5.288;2023-02-13T07:43:30;1.10;99.90
32201;DHT22;18701;45.588;5.288;2023-02-13T07:46:01;1.00;99.90
32201;DHT22;18701;45.588;5.288;2023-02-13T07:48:27;1.10;99.90
32201;DHT22;18701;45.588;5.288;2023-02-13T07:50:54;1.00;99.90
32201;DHT22;18701;45.588;5.288;2023-02-13T07:53:23;1.20;99.90
32201;DHT22;18701;45.588;5.288;2023-02-13T07:55:49;1.40;99.90
32201;DHT22;18701;45.588;5.288;2023-02-13T07:58:15;1.40;99.90
32201;DHT22;18701;45.588;5.288;2023-02-13T08:00:40;1.50;99.90
32201;DHT22;18701;45.588;5.288;2023-02-13T08:03:06;1.70;99.90
32201;DHT22;18701;45.588;5.288;2023-02-13T08:05:32;1.60;99.90
32201;DHT22;18701;45.588;5.288;2023-02-13T08:07:58;1.70;99.90
32201;DHT22;18701;45.588;5.288;2023-02-13T08:10:24;1.80;99.90
32201;DHT22;18701;45.588;5.288;2023-02-13T08:13:08;1.90;99.90
32201;DHT22;18701;45.588;5.288;2023-02-13T08:15:36;2.00;99.90
32201;DHT22;18701;45.588;5.288;2023-02-13T08:18:01;2.10;99.90
32201;DHT22;18701;45.588;5.288;2023-02-13T08:20:27;2.00;99.90
32201;DHT22;18701;45.588;5.288;2023-02-13T08:22:53;2.20;99.90
32201;DHT22;18701;45.588;5.288;2023-02-13T08:25:18;2.30;99.90
32201;DHT22;18701;45.588;5.288;2023-02-13T08:27:45;2.20;99.90
32201;DHT22;18701;45.588;5.288;2023-02-13T08:30:11;2.30;99.90
32201;DHT22;18701;45.588;5.288;2023-02-13T08:32:39;2.50;99.90
32201;DHT22;18701;45.588;5.288;2023-02-13T08:35:05;2.70;99.90
32201;DHT22;18701;45.588;5.288;2023-02-13T08:37:30;2.90;99.90
32201;DHT22;18701;45.588;5.288;2023-02-13T08:39:56;3.00;99.90
32201;DHT22;18701;45.588;5.288;2023-02-13T08:42:21;3.20;99.90
32201;DHT22;18701;45.588;5.288;2023-02-13T08:44:47;3.40;99.90
32201;DHT22;18701;45.588;5.288;2023-02-13T08:47:13;3.60;99.90
32201;DHT22;18701;45.588;5.288;2023-02-13T08:49:39;3.70;99.90
32201;DHT22;18701;45.588;5.288;2023-02-13T08:52:04;4.00;99.90
32201;DHT22;18701;45.588;5.288;2023-02-13T08:54:32;4.20;99.90
32201;DHT22;18701;45.588;5.288;2023-02-13T08:56:57;4.40;99.90
32201;DHT22;18701;45.588;5.288;2023-02-13T08:59:23;4.50;99.90
32201;DHT22;18701;45.588;5.288;2023-02-13T09:01:49;4.80;99.90
32201;DHT22;18701;45.588;5.288;2023-02-13T09:04:14;5.10;99.90
32201;DHT22;18701;45.588;5.288;2023-02-13T09:06:42;5.40;99.90
32201;DHT22;18701;45.588;5.288;2023-02-13T09:09:08;5.60;99.90
32201;DHT22;18701;45.588;5.288;2023-02-13T09:11:33;6.00;99.90
32201;DHT22;18701;45.588;5.288;2023-02-13T09:13:59;6.30;99.90
32201;DHT22;18701;45.588;5.288;2023-02-13T09:16:25;6.60;99.90
32201;DHT22;18701;45.588;5.288;2023-02-13T09:18:51;6.80;99.90
32201;DHT22;18701;45.588;5.288;2023-02-13T09:21:19;7.00;99.90
32201;DHT22;18701;45.588;5.288;2023-02-13T09:23:45;7.20;99.90
32201;DHT22;18701;45.588;5.288;2023-02-13T09:26:12;7.40;99.90
32201;DHT22;18701;45.588;5.288;2023-02-13T09:28:38;7.60;99.90
32201;DHT22;18701;45.588;5.288;2023-02-13T09:31:09;7.80;99.90
32201;DHT22;18701;45.588;5.288;2023-02-13T09:33:35;8.00;99.90
32201;DHT22;18701;45.588;5.288;2023-02-13T09:36:11;7.90;99.90
32201;DHT22;18701;45.588;5.288;2023-02-13T09:38:39;7.70;99.90
32201;DHT22;18701;45.588;5.288;2023-02-13T09:41:12;7.50;99.90
32201;DHT22;18701;45.588;5.288;2023-02-13T09:48:56;7.40;99.90
32201;DHT22;18701;45.588;5.288;2023-02-13T09:51:25;7.50;99.90
32201;DHT22;18701;45.588;5.288;2023-02-13T09:53:58;7.60;99.90
32201;DHT22;18701;45.588;5.288;2023-02-13T09:59:02;7.80;99.90
32201;DHT22;18701;45.588;5.288;2023-02-13T10:01:38;7.50;99.90
32201;DHT22;18701;45.588;5.288;2023-02-13T10:06:48;7.70;99.90
32201;DHT22;18701;45.588;5.288;2023-02-13T10:12:07;7.60;99.90
32201;DHT22;18701;45.588;5.288;2023-02-13T10:14:57;7.60;99.90
32201;DHT22;18701;45.588;5.288;2023-02-13T10:17:40;7.60;99.90
32201;DHT22;18701;45.588;5.288;2023-02-13T10:26:04;7.70;99.90
32201;DHT22;18701;45.588;5.288;2023-02-13T10:28:41;7.80;99.90
32201;DHT22;18701;45.588;5.288;2023-02-13T10:31:14;7.90;99.90
32201;DHT22;18701;45.588;5.288;2023-02-13T10:33:51;8.00;99.90
32201;DHT22;18701;45.588;5.288;2023-02-13T10:36:21;8.10;99.90
32201;DHT22;18701;45.588;5.288;2023-02-13T10:41:52;8.50;99.90
32201;DHT22;18701;45.588;5.288;2023-02-13T10:52:52;8.90;99.90
32201;DHT22;18701;45.588;5.288;2023-02-13T10:55:48;9.10;99.90
32201;DHT22;18701;45.588;5.288;2023-02-13T10:58:18;9.30;99.90
32201;DHT22;18701;45.588;5.288;2023-02-13T11:00:51;9.60;99.90
32201;DHT22;18701;45.588;5.288;2023-02-13T11:03:20;9.80;99.90
32201;DHT22;18701;45.588;5.288;2023-02-13T11:05:47;10.00;99.90
32201;DHT22;18701;45.588;5.288;2023-02-13T11:08:34;10.10;99.90
32201;DHT22;18701;45.588;5.288;2023-02-13T11:11:00;10.40;99.90
32201;DHT22;18701;45.588;5.288;2023-02-13T11:13:27;10.70;99.90
32201;DHT22;18701;45.588;5.288;2023-02-13T11:16:07;11.00;99.90
32201;DHT22;18701;45.588;5.288;2023-02-13T11:18:42;11.20;99.90
32201;DHT22;18701;45.588;5.288;2023-02-13T11:21:17;11.60;99.90
32201;DHT22;18701;45.588;5.288;2023-02-13T11:23:48;11.90;99.90
32201;DHT22;18701;45.588;5.288;2023-02-13T11:28:56;12.70;99.90
32201;DHT22;18701;45.588;5.288;2023-02-13T11:31:31;13.20;99.60
32201;DHT22;18701;45.588;5.288;2023-02-13T11:33:59;16.40;97.20
32201;DHT22;18701;45.588;5.288;2023-02-13T11:36:42;20.60;91.10
32201;DHT22;18701;45.588;5.288;2023-02-13T11:39:19;23.00;79.90
32201;DHT22;18701;45.588;5.288;2023-02-13T11:41:46;24.60;74.60
32201;DHT22;18701;45.588;5.288;2023-02-13T11:44:28;25.90;69.60
32201;DHT22;18701;45.588;5.288;2023-02-13T11:47:00;24.90;67.10
32201;DHT22;18701;45.588;5.288;2023-02-13T11:49:29;26.00;66.70
32201;DHT22;18701;45.588;5.288;2023-02-13T11:51:59;26.00;65.60
32201;DHT22;18701;45.588;5.288;2023-02-13T11:54:39;27.20;64.60
32201;DHT22;18701;45.588;5.288;2023-02-13T11:59:43;28.70;61.50
32201;DHT22;18701;45.588;5.288;2023-02-13T12:04:38;31.00;59.70
32201;DHT22;18701;45.588;5.288;2023-02-13T12:09:38;31.20;57.70
32201;DHT22;18701;45.588;5.288;2023-02-13T12:12:05;31.90;56.00
32201;DHT22;18701;45.588;5.288;2023-02-13T12:14:38;32.40;55.50
32201;DHT22;18701;45.588;5.288;2023-02-13T12:17:19;31.30;53.70
32201;DHT22;18701;45.588;5.288;2023-02-13T12:19:48;28.90;51.80
32201;DHT22;18701;45.588;5.288;2023-02-13T12:30:42;27.50;52.40
32201;DHT22;18701;45.588;5.288;2023-02-13T12:33:52;29.20;51.20
32201;DHT22;18701;45.588;5.288;2023-02-13T12:39:16;28.20;50.90
32201;DHT22;18701;45.588;5.288;2023-02-13T12:47:17;27.80;51.60
32201;DHT22;18701;45.588;5.288;2023-02-13T12:50:08;27.30;50.80
32201;DHT22;18701;45.588;5.288;2023-02-13T12:52:56;26.60;51.90
32201;DHT22;18701;45.588;5.288;2023-02-13T13:03:22;30.90;50.10
32201;DHT22;18701;45.588;5.288;2023-02-13T13:11:43;27.60;50.90
32201;DHT22;18701;45.588;5.288;2023-02-13T13:19:51;28.90;50.80
32201;DHT22;18701;45.588;5.288;2023-02-13T13:25:22;29.50;50.60
32201;DHT22;18701;45.588;5.288;2023-02-13T13:27:54;31.00;49.60
32201;DHT22;18701;45.588;5.288;2023-02-13T13:30:30;30.70;49.70
32201;DHT22;18701;45.588;5.288;2023-02-13T13:33:04;31.10;49.00
32201;DHT22;18701;45.588;5.288;2023-02-13T13:35:33;31.80;49.20
32201;DHT22;18701;45.588;5.288;2023-02-13T13:43:36;32.00;49.30
32201;DHT22;18701;45.588;5.288;2023-02-13T13:51:05;33.00;48.40
32201;DHT22;18701;45.588;5.288;2023-02-13T13:53:31;31.90;48.40
32201;DHT22;18701;45.588;5.288;2023-02-13T13:55:59;32.90;48.40
32201;DHT22;18701;45.588;5.288;2023-02-13T14:01:28;32.70;48.00
32201;DHT22;18701;45.588;5.288;2023-02-13T14:04:02;33.60;47.60
32201;DHT22;18701;45.588;5.288;2023-02-13T14:11:52;33.80;46.80
32201;DHT22;18701;45.588;5.288;2023-02-13T14:16:56;32.80;46.80
32201;DHT22;18701;45.588;5.288;2023-02-13T14:19:36;32.30;46.60
32201;DHT22;18701;45.588;5.288;2023-02-13T14:25:03;32.40;46.60
32201;DHT22;18701;45.588;5.288;2023-02-13T14:27:37;32.20;46.80
32201;DHT22;18701;45.588;5.288;2023-02-13T14:30:05;32.00;45.90
32201;DHT22;18701;45.588;5.288;2023-02-13T14:32:35;32.50;46.10
32201;DHT22;18701;45.588;5.288;2023-02-13T14:37:55;32.90;45.70
32201;DHT22;18701;45.588;5.288;2023-02-13T14:40:49;32.60;44.90
32201;DHT22;18701;45.588;5.288;2023-02-13T14:43:38;32.00;45.30
32201;DHT22;18701;45.588;5.288;2023-02-13T14:46:21;32.00;45.50
32201;DHT22;18701;45.588;5.288;2023-02-13T14:48:59;29.80;45.90
32201;DHT22;18701;45.588;5.288;2023-02-13T14:51:39;28.80;46.20
32201;DHT22;18701;45.588;5.288;2023-02-13T14:54:14;29.80;45.40
32201;DHT22;18701;45.588;5.288;2023-02-13T14:56:44;30.20;44.50
32201;DHT22;18701;45.588;5.288;2023-02-13T14:59:16;30.40;45.50
32201;DHT22;18701;45.588;5.288;2023-02-13T15:01:51;30.10;45.40
32201;DHT22;18701;45.588;5.288;2023-02-13T15:04:29;29.70;45.70
32201;DHT22;18701;45.588;5.288;2023-02-13T15:06:57;30.00;45.80
32201;DHT22;18701;45.588;5.288;2023-02-13T15:09:40;29.90;45.50
32201;DHT22;18701;45.588;5.288;2023-02-13T15:12:32;29.40;45.20
32201;DHT22;18701;45.588;5.288;2023-02-13T15:14:59;29.00;45.70
32201;DHT22;18701;45.588;5.288;2023-02-13T15:17:32;30.00;45.00
32201;DHT22;18701;45.588;5.288;2023-02-13T15:20:05;28.40;45.50
32201;DHT22;18701;45.588;5.288;2023-02-13T15:22:45;29.50;45.40
32201;DHT22;18701;45.588;5.288;2023-02-13T15:27:51;29.80;45.60
32201;DHT22;18701;45.588;5.288;2023-02-13T15:33:16;28.50;44.80
32201;DHT22;18701;45.588;5.288;2023-02-13T15:35:43;28.40;45.70
32201;DHT22;18701;45.588;5.288;2023-02-13T15:38:22;28.10;45.90
32201;DHT22;18701;45.588;5.288;2023-02-13T15:40:49;28.90;45.40
32201;DHT22;18701;45.588;5.288;2023-02-13T15:43:36;28.70;45.50
32201;DHT22;18701;45.588;5.288;2023-02-13T15:46:26;28.50;45.80
32201;DHT22;18701;45.588;5.288;2023-02-13T15:48:54;29.00;45.90
32201;DHT22;18701;45.588;5.288;2023-02-13T15:51:24;29.00;45.40
32201;DHT22;18701;45.588;5.288;2023-02-13T15:56:16;28.50;45.40
32201;DHT22;18701;45.588;5.288;2023-02-13T15:58:42;28.60;45.50
32201;DHT22;18701;45.588;5.288;2023-02-13T16:01:08;27.50;46.20
32201;DHT22;18701;45.588;5.288;2023-02-13T16:03:35;27.90;46.50
32201;DHT22;18701;45.588;5.288;2023-02-13T16:06:03;28.10;46.80
32201;DHT22;18701;45.588;5.288;2023-02-13T16:19:24;25.80;48.30
32201;DHT22;18701;45.588;5.288;2023-02-13T16:21:52;23.80;49.90
32201;DHT22;18701;45.588;5.288;2023-02-13T16:24:18;22.10;50.60
32201;DHT22;18701;45.588;5.288;2023-02-13T16:26:45;21.00;53.10
32201;DHT22;18701;45.588;5.288;2023-02-13T16:29:17;20.00;54.50
32201;DHT22;18701;45.588;5.288;2023-02-13T16:31:43;19.60;56.20
32201;DHT22;18701;45.588;5.288;2023-02-13T16:34:14;19.10;55.80
32201;DHT22;18701;45.588;5.288;2023-02-13T16:36:46;18.60;57.30
32201;DHT22;18701;45.588;5.288;2023-02-13T16:39:20;18.10;58.40
32201;DHT22;18701;45.588;5.288;2023-02-13T16:41:46;17.80;59.00
32201;DHT22;18701;45.588;5.288;2023-02-13T16:44:29;17.40;59.30
32201;DHT22;18701;45.588;5.288;2023-02-13T16:47:03;17.10;60.10
32201;DHT22;18701;45.588;5.288;2023-02-13T16:49:34;16.70;61.00
32201;DHT22;18701;45.588;5.288;2023-02-13T16:54:33;16.20;62.70
32201;DHT22;18701;45.588;5.288;2023-02-13T17:07:30;15.10;65.00
32201;DHT22;18701;45.588;5.288;2023-02-13T17:10:04;14.80;64.20
32201;DHT22;18701;45.588;5.288;2023-02-13T17:12:34;14.70;63.50
32201;DHT22;18701;45.588;5.288;2023-02-13T17:15:00;14.70;64.10
32201;DHT22;18701;45.588;5.288;2023-02-13T17:17:29;14.20;65.40
32201;DHT22;18701;45.588;5.288;2023-02-13T17:19:55;14.30;65.90
32201;DHT22;18701;45.588;5.288;2023-02-13T17:22:32;14.10;66.40
32201;DHT22;18701;45.588;5.288;2023-02-13T17:24:59;14.10;67.10
32201;DHT22;18701;45.588;5.288;2023-02-13T17:27:25;13.90;67.40
32201;DHT22;18701;45.588;5.288;2023-02-13T17:29:51;13.60;68.00
32201;DHT22;18701;45.588;5.288;2023-02-13T17:32:19;13.60;68.20
32201;DHT22;18701;45.588;5.288;2023-02-13T17:34:46;13.40;68.20
32201;DHT22;18701;45.588;5.288;2023-02-13T17:37:20;13.50;68.20
32201;DHT22;18701;45.588;5.288;2023-02-13T17:39:47;13.20;69.00
32201;DHT22;18701;45.588;5.288;2023-02-13T17:42:25;13.00;70.00
32201;DHT22;18701;45.588;5.288;2023-02-13T17:44:55;13.10;70.60
32201;DHT22;18701;45.588;5.288;2023-02-13T17:47:22;12.80;70.70
32201;DHT22;18701;45.588;5.288;2023-02-13T17:49:48;12.60;71.30
32201;DHT22;18701;45.588;5.288;2023-02-13T17:52:20;12.50;71.40
32201;DHT22;18701;45.588;5.288;2023-02-13T17:54:47;12.60;71.70
32201;DHT22;18701;45.588;5.288;2023-02-13T17:57:14;12.50;71.90
32201;DHT22;18701;45.588;5.288;2023-02-13T17:59:40;12.30;72.40
32201;DHT22;18701;45.588;5.288;2023-02-13T18:02:13;12.10;72.70
32201;DHT22;18701;45.588;5.288;2023-02-13T18:04:40;12.20;72.60
32201;DHT22;18701;45.588;5.288;2023-02-13T18:07:06;12.10;73.30
32201;DHT22;18701;45.588;5.288;2023-02-13T18:09:31;11.80;73.90
32201;DHT22;18701;45.588;5.288;2023-02-13T18:11:57;11.50;75.40
32201;DHT22;18701;45.588;5.288;2023-02-13T18:14:22;11.70;75.40
32201;DHT22;18701;45.588;5.288;2023-02-13T18:16:48;11.40;75.50
32201;DHT22;18701;45.588;5.288;2023-02-13T18:19:14;11.60;75.80
32201;DHT22;18701;45.588;5.288;2023-02-13T18:21:40;11.60;75.50
32201;DHT22;18701;45.588;5.288;2023-02-13T18:24:06;11.60;75.80
32201;DHT22;18701;45.588;5.288;2023-02-13T18:26:33;11.50;76.10
32201;DHT22;18701;45.588;5.288;2023-02-13T18:28:58;11.50;76.60
32201;DHT22;18701;45.588;5.288;2023-02-13T18:31:24;11.30;76.80
32201;DHT22;18701;45.588;5.288;2023-02-13T18:33:50;11.10;77.70
32201;DHT22;18701;45.588;5.288;2023-02-13T18:36:15;11.20;77.90
32201;DHT22;18701;45.588;5.288;2023-02-13T18:38:41;11.10;77.80
32201;DHT22;18701;45.588;5.288;2023-02-13T18:41:06;11.20;78.10
32201;DHT22;18701;45.588;5.288;2023-02-13T18:43:32;11.00;78.20
32201;DHT22;18701;45.588;5.288;2023-02-13T18:45:58;10.90;78.80
32201;DHT22;18701;45.588;5.288;2023-02-13T18:48:23;10.60;79.60
32201;DHT22;18701;45.588;5.288;2023-02-13T18:50:49;10.80;79.20
32201;DHT22;18701;45.588;5.288;2023-02-13T18:53:15;10.80;79.40
32201;DHT22;18701;45.588;5.288;2023-02-13T18:55:40;10.60;79.80
32201;DHT22;18701;45.588;5.288;2023-02-13T18:58:06;10.50;80.30